Date,TemperatureHighF,TemperatureAvgF,TemperatureLowF,DewpointHighF,DewpointAvgF,DewpointLowF,HumidityHigh,HumidityAvg,HumidityLow,PressureMaxIn,PressureMinIn,WindSpeedMaxMPH,WindSpeedAvgMPH,GustSpeedMaxMPH,PrecipitationSumIn
2013-1-1,18,12,6,17,11,4,98,94,90,0.00,40.00,5,2,7,0.00
2013-1-2,12,8,4,11,7,2,94,92,88,0.00,40.00,6,2,9,0.00
2013-1-3,20,10,3,19,8,0,98,93,89,0.00,40.00,6,1,7,0.00
2013-1-4,22,13,6,20,12,4,97,93,87,0.00,40.00,3,1,5,0.16
2013-1-5,26,15,6,21,13,5,96,91,83,0.00,40.00,5,2,7,0.00
2013-1-6,29,21,14,22,17,12,96,87,69,0.00,40.00,5,2,7,0.00
2013-1-7,25,19,12,25,19,11,100,98,94,0.00,40.00,4,2,5,4.81
2013-1-8,34,30,24,34,30,24,100,100,100,0.00,40.00,4,2,6,4.05
2013-1-9,39,34,31,36,34,31,100,99,89,0.00,40.00,5,2,9,2.66
2013-1-10,31,22,17,31,22,16,100,99,97,0.00,40.00,5,2,7,1.69
2013-1-11,21,14,7,18,13,5,98,92,80,0.00,40.00,2,0,4,0.16
2013-1-12,15,5,-5,13,3,-8,94,89,77,0.00,40.00,6,1,7,0.00
2013-1-13,16,4,-3,10,2,-6,93,87,73,0.00,40.00,4,1,7,0.00
2013-1-14,13,7,-1,12,5,-3,96,91,85,0.00,40.00,3,1,5,2.29
2013-1-15,24,17,11,22,15,10,99,94,80,0.00,40.00,4,1,5,0.00
2013-1-16,24,14,7,21,13,6,99,94,82,0.00,40.00,3,1,4,0.00
2013-1-17,22,14,5,19,12,3,98,94,83,0.00,40.00,3,1,4,0.00
2013-1-18,28,15,7,24,13,5,99,94,77,0.00,40.00,3,1,4,0.00
2013-1-19,29,17,6,24,15,5,99,93,72,0.00,40.00,3,1,4,0.00
2013-1-20,30,18,8,25,15,6,99,92,68,0.00,40.00,3,1,4,0.00
2013-1-21,31,20,9,26,18,8,100,93,75,0.00,40.00,3,2,5,0.00
2013-1-22,34,19,9,25,16,8,98,88,59,0.00,40.00,5,2,7,0.00
2013-1-23,38,25,14,33,21,13,100,85,57,0.00,40.00,5,2,9,0.67
2013-1-24,37,33,29,36,33,29,100,99,95,0.00,40.00,4,2,6,1.11
2013-1-25,36,34,32,36,34,32,100,99,100,0.00,40.00,5,2,8,1.78
2013-1-26,36,33,27,36,33,27,100,100,100,0.00,40.00,5,1,9,2.77
2013-1-27,32,23,17,28,22,17,100,96,81,0.00,40.00,2,0,6,0.08
2013-1-28,24,20,13,23,19,13,99,97,93,0.00,40.00,2,0,5,6.74
2013-1-29,31,26,22,29,25,22,100,98,86,0.00,40.00,5,2,9,7.87
2013-1-30,36,30,26,34,30,26,100,98,90,0.00,40.00,3,1,4,1.30
2013-1-31,36,33,28,34,33,28,100,99,93,0.00,40.00,3,1,4,0.28
2013-2-1,39,32,22,35,32,21,100,98,84,0.00,40.00,3,1,5,0.00
2013-2-2,36,25,15,31,23,15,100,94,66,0.00,40.00,4,1,5,0.00
2013-2-3,34,27,21,29,26,21,100,97,82,0.00,40.00,4,1,6,0.00
2013-2-4,39,31,25,32,29,25,100,92,65,0.00,40.00,5,1,8,0.00
2013-2-5,39,33,29,32,30,28,100,90,68,0.00,40.00,4,1,7,0.00
2013-2-6,37,28,22,29,24,20,100,90,57,0.00,40.00,3,1,6,0.00
2013-2-7,37,28,22,26,22,19,94,81,51,0.00,40.00,5,1,8,0.00
2013-2-8,35,27,22,26,22,17,100,83,58,0.00,40.00,9,3,16,0.00
2013-2-9,31,26,20,25,19,14,100,76,56,0.00,40.00,7,3,12,0.04
2013-2-10,32,24,15,22,19,12,100,82,52,0.00,40.00,5,2,9,0.00
2013-2-11,32,20,8,24,15,6,97,82,54,0.00,40.00,4,1,6,0.00
2013-2-12,36,28,18,28,23,16,95,82,65,0.00,40.00,4,1,6,0.00
2013-2-13,38,32,29,30,28,27,98,85,69,0.00,40.00,5,1,11,0.00
2013-2-14,38,31,21,29,24,18,97,77,46,0.00,40.00,5,1,9,0.00
2013-2-15,42,31,21,29,25,20,100,80,48,0.00,40.00,4,1,7,0.00
2013-2-16,44,33,23,33,27,22,100,81,55,0.00,40.00,6,2,10,0.20
2013-2-17,33,25,15,30,23,14,100,93,70,0.00,40.00,5,1,8,0.00
2013-2-18,32,20,9,20,14,8,98,79,49,0.00,40.00,6,2,8,0.00
2013-2-19,29,23,18,28,20,13,100,89,69,0.00,40.00,3,1,4,2.67
2013-2-20,31,24,18,25,19,12,100,83,49,0.00,40.00,6,2,10,0.00
2013-2-21,30,20,5,24,15,3,99,81,48,0.00,40.00,5,1,9,3.07
2013-2-22,29,26,20,29,26,20,100,98,92,0.00,40.00,4,2,6,5.23
2013-2-23,30,24,14,30,23,13,100,96,80,0.00,40.00,6,2,10,1.77
2013-2-24,33,22,12,25,19,11,100,90,58,0.00,40.00,4,1,5,0.00
2013-2-25,28,22,14,26,21,14,100,96,89,0.00,40.00,3,1,6,4.22
2013-2-26,31,19,10,21,16,8,99,88,59,0.00,40.00,4,1,7,0.00
2013-2-27,34,21,9,24,16,8,96,82,53,0.00,40.00,5,2,7,0.00
2013-2-28,34,29,21,34,28,19,100,97,81,0.00,40.00,4,1,6,5.65
2013-3-1,42,35,30,41,35,30,100,100,91,0.00,40.00,4,1,7,0.08
2013-3-2,47,36,28,39,33,28,100,90,65,0.00,40.00,6,2,9,0.00
2013-3-3,38,31,18,36,20,3,100,68,28,0.00,40.00,8,2,12,0.24
2013-3-4,34,22,10,17,11,6,92,65,30,0.00,40.00,5,2,9,0.00
2013-3-5,40,27,14,26,16,9,81,65,41,0.00,40.00,5,2,9,0.00
2013-3-6,38,32,29,37,31,24,100,94,66,0.00,40.00,8,3,12,2.20
2013-3-7,37,28,20,29,24,18,100,87,46,0.00,40.00,5,1,8,0.00
2013-3-8,41,29,15,26,20,13,96,72,46,0.00,40.00,5,2,9,0.00
2013-3-9,42,32,24,23,19,14,77,60,38,0.00,40.00,7,3,13,0.00
2013-3-10,44,32,18,29,19,12,94,63,27,0.00,40.00,5,1,7,0.00
2013-3-11,43,37,33,36,30,22,100,79,43,0.00,40.00,6,2,9,0.04
2013-3-12,46,38,33,35,32,29,95,80,65,0.00,40.00,4,1,7,0.00
2013-3-13,53,42,35,36,34,29,96,74,48,0.00,40.00,4,1,6,0.00
2013-3-14,55,42,31,32,29,27,88,62,35,0.00,40.00,4,2,6,0.00
2013-3-15,49,42,35,33,31,27,86,65,49,0.00,40.00,6,2,9,0.00
2013-3-16,45,35,25,35,28,23,100,76,48,0.00,40.00,5,2,10,0.24
2013-3-17,34,27,18,34,21,14,100,81,51,0.00,40.00,9,3,14,0.04
2013-3-18,36,25,16,24,17,13,91,73,45,0.00,40.00,8,1,14,0.20
2013-3-19,44,28,11,24,12,-1,87,55,17,0.00,40.00,5,2,10,0.00
2013-3-20,42,36,32,40,34,18,100,91,42,0.00,40.00,7,3,12,3.11
2013-3-21,32,26,21,32,22,16,100,86,61,0.00,40.00,5,1,10,1.50
2013-3-22,31,23,15,22,18,11,99,83,48,0.00,40.00,9,2,13,0.00
2013-3-23,33,20,7,16,10,-1,96,69,23,0.00,40.00,6,2,8,0.00
2013-3-24,35,22,9,17,11,7,93,66,30,0.00,40.00,5,2,7,0.00
2013-3-25,41,28,15,24,16,13,89,64,36,0.00,40.00,5,2,8,0.00
2013-3-26,48,38,28,33,28,24,92,69,47,0.00,40.00,5,2,10,0.00
2013-3-27,47,36,27,35,31,27,100,84,60,0.00,40.00,4,2,6,0.00
2013-3-28,55,42,32,36,33,31,100,75,43,0.00,40.00,5,2,11,0.00
2013-3-29,51,41,36,41,36,31,100,83,61,0.00,40.00,4,1,7,0.28
2013-3-30,56,42,29,37,27,-100,100,66,22,0.00,40.00,4,1,6,0.00
2013-3-31,61,42,28,31,22,0,87,51,9,0.00,40.00,4,2,7,0.00
2013-4-1,59,45,30,35,30,25,86,58,34,0.00,40.00,6,2,11,0.00
2013-4-2,58,46,35,38,36,33,94,68,41,0.00,40.00,5,2,9,0.00
2013-4-3,58,44,34,38,35,33,98,73,41,0.00,40.00,6,1,8,0.04
2013-4-4,56,43,35,41,37,34,98,79,48,0.00,40.00,7,2,10,0.00
2013-4-5,48,41,35,42,38,34,100,89,58,0.00,40.00,6,1,11,0.08
2013-4-6,46,39,36,42,38,35,100,94,71,0.00,40.00,6,2,9,2.14
2013-4-7,41,35,32,38,35,32,100,99,87,0.00,40.00,4,1,6,4.37
2013-4-8,39,33,27,32,28,22,100,83,50,0.00,40.00,8,4,14,0.00
2013-4-9,47,36,27,28,23,14,80,61,28,0.00,40.00,8,3,13,0.00
2013-4-10,47,37,29,41,30,25,100,76,50,0.00,40.00,5,2,7,0.00
2013-4-11,49,38,29,33,27,18,97,67,32,0.00,40.00,7,3,12,0.00
2013-4-12,51,38,25,31,23,13,90,58,22,0.00,40.00,5,2,9,0.00
2013-4-13,43,36,28,36,22,7,98,59,26,0.00,40.00,9,3,15,0.00
2013-4-14,37,30,24,27,20,11,93,70,36,0.00,40.00,6,1,10,0.00
2013-4-15,36,29,24,31,27,24,100,93,66,0.00,40.00,5,3,9,1.30
2013-4-16,38,31,25,26,16,10,87,55,32,0.00,40.00,7,3,14,0.00
2013-4-17,42,31,22,16,12,4,69,46,25,0.00,40.00,8,3,14,0.00
2013-4-18,46,33,20,29,18,10,73,54,40,0.00,40.00,6,2,11,0.00
2013-4-19,42,38,33,42,35,26,100,91,62,0.00,40.00,4,1,4,2.69
2013-4-20,49,40,33,38,35,30,100,83,51,0.00,40.00,6,1,10,0.00
2013-4-21,48,40,32,33,30,27,96,72,45,0.00,40.00,6,2,12,0.00
2013-4-22,42,34,28,34,22,11,100,65,31,0.00,40.00,9,3,16,0.16
2013-4-23,47,35,21,21,16,5,83,50,22,0.00,40.00,7,2,12,0.00
2013-4-24,54,40,25,26,19,13,76,47,22,0.00,40.00,6,2,12,0.00
2013-4-25,61,44,29,30,25,20,80,51,25,0.00,40.00,6,2,12,0.00
2013-4-26,65,50,33,39,32,28,89,55,29,0.00,40.00,5,2,8,0.00
2013-4-27,65,51,35,37,32,24,90,54,23,0.00,40.00,6,2,10,0.00
2013-4-28,58,49,42,37,31,26,73,51,29,0.00,40.00,9,2,13,0.00
2013-4-29,50,44,32,37,28,13,74,55,24,0.00,40.00,12,3,18,0.00
2013-4-30,41,32,26,25,20,13,85,62,37,0.00,40.00,9,3,15,0.00
2013-5-1,49,36,24,22,17,9,85,51,24,0.00,40.00,6,3,12,0.00
2013-5-2,60,43,26,28,22,19,81,48,20,0.00,40.00,6,2,12,0.00
2013-5-3,60,48,34,33,26,20,66,44,25,0.00,40.00,9,3,16,0.00
2013-5-4,60,50,39,33,30,27,76,48,29,0.00,40.00,9,4,15,0.00
2013-5-5,67,52,35,38,32,25,88,52,21,0.00,40.00,6,2,11,0.00
2013-5-6,72,56,39,39,31,20,77,45,16,0.00,40.00,8,3,12,0.00
2013-5-7,74,56,38,46,36,29,87,53,20,0.00,40.00,8,2,13,0.00
2013-5-8,74,59,42,47,39,28,90,54,19,0.00,40.00,6,2,14,0.00
2013-5-9,74,59,41,46,39,30,91,54,20,0.00,40.00,6,2,12,0.00
2013-5-10,77,61,42,42,33,-100,88,44,16,0.00,40.00,8,2,13,0.00
2013-5-11,78,59,43,45,38,-100,79,51,22,0.00,40.00,8,3,14,0.00
2013-5-12,80,63,45,45,41,34,83,51,20,0.00,40.00,5,2,13,0.00
2013-5-13,79,62,46,51,45,37,99,61,23,0.00,40.00,9,3,17,0.00
2013-5-14,65,52,39,46,36,15,99,63,16,0.00,40.00,7,3,13,0.00
2013-5-15,65,53,41,42,38,33,91,60,31,0.00,40.00,7,2,13,0.00
2013-5-16,58,46,40,44,25,-100,100,74,44,0.00,40.00,5,2,9,0.04
2013-5-17,52,46,42,46,42,-100,100,94,71,0.00,40.00,4,1,6,1.35
2013-5-18,55,46,39,45,41,38,100,85,54,0.00,40.00,7,2,10,0.08
2013-5-19,54,45,40,42,40,36,100,83,53,0.00,40.00,8,4,15,0.00
2013-5-20,65,53,39,42,38,35,91,59,36,0.00,40.00,6,2,12,0.00
2013-5-21,68,52,37,44,38,32,98,65,28,0.00,40.00,8,3,15,0.00
2013-5-22,45,38,29,43,32,14,100,81,29,0.00,40.00,7,2,9,1.50
2013-5-23,55,40,24,31,22,11,91,55,18,0.00,40.00,5,2,12,0.00
2013-5-24,53,42,32,39,33,29,97,75,41,0.00,40.00,6,2,11,0.00
2013-5-25,58,46,37,42,37,32,98,76,38,0.00,40.00,6,2,11,0.12
2013-5-26,56,47,39,47,40,33,100,80,59,0.00,40.00,9,2,13,0.91
2013-5-27,56,46,40,45,42,36,100,87,49,0.00,40.00,4,1,9,0.56
2013-5-28,50,45,42,49,45,41,100,99,89,0.00,40.00,5,1,8,0.84
2013-5-29,48,42,36,46,41,36,100,98,81,0.00,40.00,4,2,8,0.82
2013-5-30,53,43,35,41,38,35,100,82,53,0.00,40.00,6,2,11,0.35
2013-5-31,60,47,34,38,34,28,100,67,30,0.00,40.00,7,3,12,0.00
2013-6-1,68,52,35,43,35,31,88,57,30,0.00,40.00,7,2,11,0.00
2013-6-2,62,52,42,51,41,33,93,69,33,0.00,40.00,6,2,11,0.00
2013-6-3,66,51,37,42,37,32,99,65,32,0.00,40.00,6,2,11,0.00
2013-6-4,70,56,43,43,38,29,88,54,28,0.00,40.00,7,3,11,0.00
2013-6-5,75,59,42,49,41,35,90,56,25,0.00,40.00,5,2,10,0.00
2013-6-6,80,63,47,50,44,40,84,56,26,0.00,40.00,5,2,10,0.00
2013-6-7,79,64,50,50,44,36,87,54,22,0.00,40.00,9,3,15,0.00
2013-6-8,76,62,47,47,38,29,74,44,22,0.00,40.00,8,2,12,0.00
2013-6-9,80,63,46,47,40,24,84,48,13,0.00,40.00,8,2,13,0.00
2013-6-10,79,63,48,45,38,26,77,45,14,0.00,40.00,7,3,11,0.00
2013-6-11,72,61,51,45,41,33,69,49,25,0.00,40.00,7,3,11,0.00
2013-6-12,69,56,44,43,39,27,82,56,21,0.00,40.00,6,3,12,0.00
2013-6-13,60,50,40,44,39,27,99,70,32,0.00,40.00,9,3,12,0.24
2013-6-14,60,47,38,42,37,31,100,74,34,0.00,40.00,6,2,11,0.14
2013-6-15,72,53,34,39,33,24,95,54,16,0.00,40.00,5,2,11,0.00
2013-6-16,82,63,45,43,35,26,72,40,13,0.00,40.00,8,2,12,0.00
2013-6-17,80,64,48,44,37,29,76,41,16,0.00,40.00,6,2,13,0.00
2013-6-18,76,61,49,49,42,34,84,53,24,0.00,40.00,10,3,16,0.02
2013-6-19,53,45,40,50,44,40,100,97,76,0.00,40.00,6,2,15,0.75
2013-6-20,52,42,37,42,39,37,100,93,57,0.00,40.00,4,2,8,0.23
2013-6-21,51,50,50,42,41,40,70,70,69,0.00,40.00,3,2,6,0.00
2013-6-22,65,56,46,45,42,38,84,61,40,0.00,40.00,6,2,10,0.01
2013-6-23,69,54,39,51,43,38,100,72,36,0.00,40.00,6,2,9,0.01
2013-6-24,60,54,51,53,51,47,100,88,61,0.00,40.00,5,2,12,0.37
2013-6-25,56,52,49,53,52,49,100,97,78,0.00,40.00,4,2,8,0.48
2013-6-26,68,57,52,58,54,52,100,92,61,0.00,40.00,5,2,8,0.53
2013-6-27,82,63,48,57,52,48,100,75,33,0.00,40.00,5,2,10,0.02
2013-6-28,89,70,51,59,50,43,88,55,22,0.00,40.00,4,2,8,0.00
2013-6-29,90,75,62,64,56,46,89,56,22,0.00,40.00,6,2,12,0.04
2013-6-30,91,75,60,63,58,45,97,61,22,0.00,40.00,6,2,9,0.03
2013-7-1,96,77,60,60,55,50,85,52,23,0.00,40.00,4,2,7,0.00
2013-7-2,94,78,63,66,58,53,78,55,26,0.00,40.00,6,2,9,0.00
2013-7-3,88,76,63,64,56,42,89,53,22,0.00,40.00,6,2,10,0.00
2013-7-4,83,69,57,56,49,39,85,53,22,0.00,40.00,7,2,12,0.00
2013-7-5,79,66,51,50,45,34,82,51,20,0.00,40.00,6,2,11,0.00
2013-7-6,80,62,47,51,44,30,94,58,16,0.00,40.00,6,2,11,0.00
2013-7-7,84,68,49,52,44,35,79,46,19,0.00,40.00,6,2,11,0.00
2013-7-8,82,66,52,53,46,25,94,55,13,0.00,40.00,9,2,17,0.00
2013-7-9,85,68,49,50,43,33,93,49,15,0.00,40.00,7,2,11,0.00
2013-7-10,91,71,51,49,42,-100,74,40,17,0.00,40.00,6,2,11,0.00
2013-7-11,75,63,52,54,49,43,89,62,34,0.00,40.00,8,2,14,0.09
2013-7-12,80,62,46,53,46,37,99,64,22,0.00,40.00,6,3,9,0.02
2013-7-13,76,62,45,43,37,31,73,44,19,0.00,40.00,6,2,9,0.00
2013-7-14,83,66,49,46,39,32,70,42,16,0.00,40.00,6,2,11,0.00
2013-7-15,89,68,50,48,41,31,75,44,13,0.00,40.00,6,2,11,0.00
2013-7-16,90,72,56,58,48,42,66,45,23,0.00,40.00,8,3,13,0.03
2013-7-17,86,72,58,58,49,31,92,53,14,0.00,40.00,8,3,13,0.03
2013-7-18,87,69,55,50,44,31,77,46,13,0.00,40.00,4,1,6,0.00
2013-7-19,90,73,54,49,41,33,68,37,13,0.00,40.00,6,2,12,0.00
2013-7-20,89,71,54,47,38,-100,66,35,11,0.00,40.00,4,2,9,0.00
2013-7-21,88,69,52,47,36,23,68,34,10,0.00,40.00,7,2,11,0.00
2013-7-22,87,67,49,43,34,24,70,35,11,0.00,40.00,6,2,12,0.00
2013-7-23,89,69,51,45,36,23,67,35,10,0.00,40.00,5,2,8,0.00
2013-7-24,89,72,57,48,38,30,57,32,13,0.00,40.00,5,2,11,0.00
2013-7-25,89,73,56,48,40,34,67,34,15,0.00,40.00,4,2,11,0.00
2013-7-26,86,70,54,50,44,34,67,42,16,0.00,40.00,5,2,8,0.00
2013-7-27,84,70,56,51,39,28,72,36,13,0.00,40.00,6,2,15,0.00
2013-7-28,80,65,49,46,35,20,79,39,11,0.00,40.00,7,2,11,0.00
2013-7-29,79,63,48,44,35,27,77,40,15,0.00,40.00,6,2,10,0.00
2013-7-30,83,69,54,46,37,28,65,34,14,0.00,40.00,5,2,11,0.00
2013-7-31,82,68,53,48,42,37,66,40,22,0.00,40.00,6,2,9,0.00
2013-8-1,75,63,51,55,48,40,94,60,35,0.00,40.00,9,3,17,0.11
2013-8-2,69,56,44,48,45,41,100,72,36,0.00,40.00,6,2,9,0.01
2013-8-3,76,61,44,48,41,32,97,56,20,0.00,40.00,6,2,12,0.00
2013-8-4,83,65,47,46,39,29,87,48,14,0.00,40.00,6,2,13,0.00
2013-8-5,83,68,54,47,43,34,68,44,17,0.00,40.00,5,2,11,0.00
2013-8-6,83,68,50,49,42,30,78,44,15,0.00,40.00,8,2,14,0.00
2013-8-7,87,70,50,45,36,25,70,36,12,0.00,40.00,6,2,9,0.00
2013-8-8,86,71,60,44,38,33,41,31,18,0.00,40.00,9,3,13,0.00
2013-8-9,86,69,56,48,43,38,68,42,18,0.00,40.00,7,2,12,0.00
2013-8-10,83,67,54,46,41,29,70,43,14,0.00,40.00,6,2,11,0.00
2013-8-11,81,66,54,48,42,35,68,43,20,0.00,40.00,9,2,14,0.01
2013-8-12,87,66,52,47,42,32,70,46,14,0.00,40.00,7,2,11,0.01
2013-8-13,84,69,54,52,42,-100,87,44,17,0.00,40.00,7,2,11,0.09
2013-8-14,86,68,52,48,36,-100,71,39,14,0.00,40.00,5,2,10,0.02
2013-8-15,91,62,52,41,20,-100,59,32,10,0.00,40.00,6,2,12,0.00
2013-8-16,87,69,55,46,35,-100,61,33,13,0.00,40.00,6,1,10,0.00
2013-8-17,85,68,54,51,43,-100,81,47,18,0.00,40.00,6,2,10,0.00
2013-8-18,85,70,54,52,45,29,88,48,14,0.00,40.00,8,3,16,0.00
2013-8-19,87,68,51,48,31,-100,80,36,11,0.00,40.00,7,2,11,0.00
2013-8-20,87,69,53,47,39,-100,66,39,15,0.00,40.00,6,2,11,0.00
2013-8-21,87,69,51,47,42,37,73,41,18,0.00,40.00,6,2,11,0.00
2013-8-22,83,72,57,56,46,40,84,42,26,0.00,40.00,7,2,12,0.10
2013-8-23,78,64,53,56,48,36,98,64,24,0.00,40.00,8,2,13,0.01
2013-8-24,81,64,50,48,42,-100,93,52,19,0.00,40.00,7,3,12,0.00
2013-8-25,79,66,52,49,45,39,84,50,28,0.00,40.00,6,2,14,0.00
2013-8-26,77,62,51,51,44,34,89,58,23,0.00,40.00,7,3,12,0.04
2013-8-27,79,57,48,47,43,38,80,61,30,0.00,40.00,4,3,8,0.00
2013-8-28,80,72,60,59,50,43,82,48,30,0.00,40.00,6,2,10,0.22
2013-8-29,83,67,53,54,47,41,85,54,25,0.00,40.00,6,3,11,0.01
2013-8-30,79,65,50,49,45,36,86,52,21,0.00,40.00,7,2,13,0.00
2013-8-31,84,65,49,49,41,-100,88,49,18,0.00,40.00,6,2,11,0.00
2013-9-1,85,66,51,45,40,35,72,43,19,0.00,40.00,5,2,9,0.00
2013-9-4,78,71,54,59,56,54,100,62,45,0.00,40.00,5,3,8,0.03
2013-9-5,76,61,56,62,57,54,100,89,47,0.00,40.00,6,3,10,0.49
2013-9-6,69,58,50,59,49,36,100,77,29,0.00,40.00,7,2,12,0.04
2013-9-7,72,56,42,46,41,-100,99,64,27,0.00,40.00,5,2,10,0.00
2013-9-8,71,58,45,49,46,42,99,66,38,0.00,40.00,5,2,10,0.00
2013-9-9,73,58,45,49,44,40,91,64,31,0.00,40.00,6,2,11,0.00
2013-9-10,78,63,47,48,43,37,90,53,26,0.00,40.00,5,2,10,0.00
2013-9-11,83,69,50,48,41,34,78,43,18,0.00,40.00,5,2,12,0.00
2013-9-12,77,65,57,59,47,39,93,54,37,0.00,40.00,6,1,10,0.04
2013-9-13,75,61,55,63,58,53,100,90,46,0.00,40.00,5,2,9,0.10
2013-9-14,76,64,54,57,48,-100,99,63,34,0.00,40.00,6,2,9,0.01
2013-9-15,78,65,53,54,49,46,85,60,32,0.00,40.00,7,2,11,0.03
2013-9-16,73,60,51,56,44,33,99,65,25,0.00,40.00,6,2,10,0.02
2013-9-17,62,53,46,49,45,40,98,75,54,0.00,40.00,7,2,11,0.04
2013-9-18,46,43,38,45,42,38,99,98,97,0.00,40.00,4,2,6,0.06
2013-9-19,61,45,33,41,36,31,100,77,35,0.00,40.00,6,2,9,0.02
2013-9-20,74,52,36,39,34,26,98,60,16,0.00,40.00,5,3,9,0.00
2013-9-21,65,55,50,40,33,-100,67,45,30,0.00,40.00,5,2,9,0.00
2013-9-22,55,50,45,44,40,38,83,70,54,0.00,40.00,7,2,13,0.00
2013-9-23,57,53,47,44,39,35,85,61,45,0.00,40.00,5,2,11,0.03
2013-9-24,47,44,40,44,42,40,98,92,80,0.00,40.00,7,2,11,0.46
2013-9-25,41,38,36,40,38,36,100,98,91,0.00,40.00,5,4,9,0.18
2013-9-26,47,40,35,39,34,29,100,83,51,0.00,40.00,7,4,10,0.00
2013-9-27,49,41,34,38,34,28,97,77,46,0.00,40.00,5,2,9,0.16
2013-9-28,50,44,38,46,40,-100,99,91,77,0.00,40.00,6,3,9,0.73
2013-9-29,53,41,37,46,39,37,100,94,55,0.00,40.00,6,3,15,1.98
2013-9-30,49,43,38,48,40,32,100,88,54,0.00,40.00,9,2,12,1.37
2013-10-4,49,42,32,33,29,27,85,60,43,0.00,40.00,6,2,11,0.00
2013-10-5,54,41,27,33,29,25,97,66,37,0.00,40.00,5,2,8,0.00
2013-10-6,64,43,29,35,30,20,99,68,18,0.00,40.00,5,2,8,0.00
2013-10-7,59,47,37,35,30,22,76,54,24,0.00,40.00,8,1,11,0.00
2013-10-8,44,37,30,35,32,29,99,84,62,0.00,40.00,5,1,9,0.18
2013-10-9,45,36,31,40,34,31,100,95,74,0.00,40.00,7,4,12,0.17
2013-10-10,48,38,30,37,33,30,100,83,51,0.00,40.00,6,3,11,0.00
2013-10-11,49,39,32,33,30,24,99,73,41,0.00,40.00,4,2,8,0.00
2013-10-12,47,38,32,36,31,-100,95,78,57,0.00,40.00,4,2,9,0.00
2013-10-13,47,39,33,37,33,29,100,80,51,0.00,40.00,5,3,8,0.00
2013-10-14,48,37,30,33,28,20,97,73,34,0.00,40.00,6,3,11,0.00
2013-10-15,49,38,27,31,28,24,95,71,38,0.00,40.00,4,1,8,0.00
2013-10-16,50,37,29,33,30,28,98,77,47,0.00,40.00,4,2,8,0.00
2013-10-17,49,39,30,32,30,29,98,74,50,0.00,40.00,7,2,12,0.00
2013-10-18,51,37,27,33,29,26,98,75,42,0.00,40.00,4,1,8,0.00
2013-10-19,57,39,27,36,29,-100,97,72,35,0.00,40.00,5,2,7,0.00
2013-10-20,55,43,31,35,32,28,90,65,42,0.00,40.00,5,2,10,0.00
2013-10-21,58,45,34,39,35,32,97,70,40,0.00,40.00,5,2,8,0.00
2013-10-22,61,44,32,40,36,32,99,76,43,0.00,40.00,5,2,7,0.00
2013-10-23,62,44,32,39,35,32,98,74,38,0.00,40.00,5,2,8,0.00
2013-10-24,62,45,32,37,33,28,93,65,35,0.00,40.00,5,2,8,0.00
2013-10-25,62,45,31,36,31,28,87,62,31,0.00,40.00,5,2,6,0.00
2013-10-26,60,42,31,35,29,-100,88,66,34,0.00,40.00,4,1,6,0.00
2013-10-27,51,39,30,35,32,29,99,77,53,0.00,40.00,6,3,8,0.00
2013-10-28,44,38,32,36,29,-100,96,75,57,0.00,40.00,6,3,8,0.01
2013-10-29,45,35,28,31,27,24,86,74,54,0.00,40.00,3,1,6,0.01
2013-10-30,39,35,33,32,31,28,95,87,74,0.00,40.00,4,2,6,0.00
2013-10-31,35,32,27,35,31,27,100,97,91,0.00,40.00,3,1,4,0.11
2013-11-1,43,34,31,39,34,31,100,99,82,0.00,40.00,5,2,8,0.02
2013-11-2,42,36,28,39,34,-100,100,93,80,0.00,40.00,5,2,8,0.33
2013-11-3,32,28,24,27,24,22,97,84,70,0.00,40.00,6,1,8,0.02
2013-11-4,31,26,17,25,22,15,98,87,64,0.00,40.00,6,1,11,0.23
2013-11-5,29,22,14,29,21,13,99,96,93,0.00,40.00,4,2,7,1.48
2013-11-6,36,34,29,36,33,29,100,99,97,0.00,40.00,4,1,5,0.56
2013-11-7,42,38,31,42,38,31,100,99,90,0.00,40.00,7,3,15,0.60
2013-11-8,37,33,29,33,31,29,99,94,80,0.00,40.00,1,0,5,0.04
2013-11-9,43,33,28,32,28,-100,100,88,60,0.00,40.00,6,1,9,0.00
2013-11-10,50,39,32,36,33,29,95,78,53,0.00,40.00,4,1,6,0.00
2013-11-11,53,39,30,36,32,30,97,78,46,0.00,40.00,4,2,6,0.00
2013-11-12,53,41,32,41,32,28,97,74,44,0.00,40.00,7,2,11,0.03
2013-11-13,47,39,30,42,36,29,99,91,67,0.00,40.00,3,1,6,0.07
2013-11-14,40,32,28,32,29,28,100,90,65,0.00,40.00,5,2,7,0.03
2013-11-15,35,30,24,30,26,23,99,86,61,0.00,40.00,7,2,10,0.63
2013-11-16,32,27,21,29,25,-100,99,95,79,0.00,40.00,5,1,9,1.31
2013-11-17,38,30,21,30,27,21,98,89,69,0.00,40.00,3,1,5,0.06
2013-11-18,39,30,23,33,28,23,99,90,64,0.00,40.00,4,2,6,0.02
2013-11-19,36,34,33,36,34,33,100,99,94,0.00,40.00,4,2,5,1.22
2013-11-20,38,31,16,38,27,11,100,87,46,0.00,40.00,7,2,10,0.35
2013-11-21,27,18,13,15,12,9,89,76,56,0.00,40.00,5,2,9,0.01
2013-11-22,34,20,12,18,13,10,95,76,49,0.00,40.00,6,2,7,0.00
2013-11-23,39,28,17,23,18,-100,97,72,45,0.00,40.00,4,2,6,0.00
2013-11-24,39,28,18,23,19,16,97,72,41,0.00,40.00,5,2,7,0.00
2013-11-25,47,33,26,30,23,17,90,67,43,0.00,40.00,4,1,6,0.00
2013-11-26,45,34,25,30,27,24,97,78,50,0.00,40.00,4,2,6,0.00
2013-11-27,44,34,27,30,27,24,90,75,49,0.00,40.00,4,1,6,0.00
2013-11-28,44,31,25,30,25,22,92,80,51,0.00,40.00,4,2,5,0.00
2013-11-29,41,31,22,30,26,22,99,83,59,0.00,40.00,4,2,5,0.00
2013-11-30,35,33,31,34,30,-100,100,93,82,0.00,40.00,3,1,4,0.04
2013-12-1,40,36,34,40,35,34,100,100,100,0.00,40.00,4,2,6,0.96
2013-12-2,40,32,19,40,31,18,100,96,91,0.00,40.00,6,2,10,0.32
2013-12-3,23,18,11,20,15,5,96,91,74,0.00,40.00,5,2,9,0.11
2013-12-4,13,7,1,8,3,-2,91,83,69,0.00,40.00,5,1,8,0.01
2013-12-5,13,6,-1,6,2,-4,90,85,62,0.00,40.00,2,1,6,0.00
2013-12-6,13,7,0,9,4,-2,91,87,68,0.00,40.00,4,1,7,0.10
2013-12-7,11,6,-3,9,2,-100,91,88,86,0.00,40.00,6,4,9,0.02
2013-12-8,6,-1,-7,3,-4,-10,88,86,84,0.00,40.00,6,1,7,0.01
2013-12-9,12,5,-4,10,2,-8,91,88,85,0.00,40.00,4,2,6,0.10
2013-12-10,19,13,8,15,10,5,95,87,71,0.00,40.00,4,1,6,0.02
2013-12-11,23,17,10,19,14,8,96,90,80,0.00,40.00,4,2,7,0.00
2013-12-12,26,19,12,24,17,11,97,93,88,0.00,40.00,3,1,5,0.00
2013-12-13,32,26,21,28,24,19,97,93,81,0.00,40.00,4,1,7,0.26
2013-12-14,33,29,26,31,27,-100,99,94,87,0.00,40.00,5,1,9,0.02
2013-12-15,35,28,24,30,26,22,100,94,74,0.00,40.00,4,1,7,0.00
2013-12-16,35,25,17,27,22,16,98,90,66,0.00,40.00,4,1,7,0.00
2013-12-17,39,27,18,26,22,17,98,82,53,0.00,40.00,5,2,6,0.00
2013-12-18,33,29,26,28,24,20,98,82,71,0.00,40.00,4,1,5,0.44
2013-12-19,27,22,12,27,17,9,99,85,47,0.00,40.00,5,3,9,0.44
2013-12-20,18,15,8,16,13,6,95,93,87,0.00,40.00,4,2,8,2.29
2013-12-21,31,22,16,30,20,-100,98,94,92,0.00,40.00,4,1,5,1.29
2013-12-22,33,30,27,31,29,27,99,98,95,0.00,40.00,2,0,3,0.61
2013-12-23,34,33,31,34,33,31,100,100,99,0.00,40.00,5,2,8,1.05
2013-12-24,31,21,13,31,20,11,100,96,91,0.00,40.00,4,1,6,0.17
2013-12-25,26,16,8,25,15,6,98,94,91,0.00,40.00,4,2,6,0.00
2013-12-26,29,22,14,27,21,12,98,96,90,0.00,40.00,3,1,4,0.00
2013-12-27,33,22,15,29,20,13,97,95,87,0.00,40.00,4,1,7,0.00
2013-12-28,31,26,21,27,22,-100,96,90,79,0.00,40.00,4,2,7,0.02
2013-12-29,27,20,9,23,16,8,96,87,68,0.00,40.00,3,2,5,0.02
2013-12-30,31,24,17,29,22,16,99,92,69,0.00,40.00,5,2,6,0.40
2013-12-31,34,29,22,31,28,21,99,97,88,0.00,40.00,4,1,5,0.15
2014-1-1,27,22,18,27,22,17,99,97,95,0.00,40.00,5,2,7,0.04
2014-1-2,31,25,19,29,24,18,98,96,88,0.00,40.00,3,1,4,0.00